Michel Dsr — FLTE — position and weather

sailwx.info

Track history (hours):
 
Tides and Currents Weather Stations Pressure Air Temp Water Temp Dewpoint Dewpoint Depression Visibility Wind Speed Wind Dir Waves Ship Positions

Michel Dsr

Last reported at 2015-Mar-06 03:33 UTC. Time now 2015-Mar-06 03:57 UTC.
Position N 46°22' W 001°46'.

Length 80 m; draft 5 m.

Type: Dredging. MMSI: 228344700.

Date/timePositionNaut miles runAvg speedWind from/ knotsBaromVisibWave heightAir tempDewpointWater temp
2015-Mar-06 03:33N 46°22' W 001°46'9 9.3
2015-Mar-06 02:33N 46°29' W 001°55'1111.0
2015-Mar-06 01:33N 46°37' W 002°06'1110.7
2015-Mar-06 00:33N 46°45' W 002°16'1111.0
2015-Mar-05 23:33N 46°53' W 002°27'1111.3
2015-Mar-05 22:33N 47°02' W 002°38'1211.8
2015-Mar-05 21:32N 47°10' W 002°50'1212.0
2015-Mar-05 20:33N 47°19' W 003°01'1111.4
2015-Mar-05 19:34N 47°28' W 003°12'1212.0
2015-Mar-05 18:33N 47°38' W 003°22'7 7.2
2015-Mar-05 17:34N 47°45' W 003°19'0 0.0
2015-Mar-05 16:33N 47°45' W 003°19'0 0.0
2015-Mar-05 15:33N 47°45' W 003°19'0 0.2
2015-Mar-05 14:33N 47°45' W 003°19'1 1.3
2015-Mar-05 13:34N 47°44' W 003°21'0 0.0
2015-Mar-05 12:34N 47°44' W 003°21'0 0.0
2015-Mar-05 11:34N 47°44' W 003°21'0 0.0
2015-Mar-05 10:33N 47°44' W 003°21'0 0.0
2015-Mar-05 09:34N 47°44' W 003°21'0 0.0
2015-Mar-05 08:34N 47°44' W 003°21'0 0.0
2015-Mar-05 07:34N 47°44' W 003°21'0 0.0
2015-Mar-05 06:34N 47°44' W 003°21'4 4.2
2015-Mar-05 05:34N 47°41' W 003°25'10 9.9
2015-Mar-05 04:34N 47°32' W 003°17'8 8.2
2015-Mar-05 03:34N 47°26' W 003°09'8 8.2
2015-Mar-05 02:34N 47°20' W 003°01'8 8.3
2015-Mar-05 01:33N 47°15' W 002°51'8 8.2
2015-Mar-05 00:33N 47°11' W 002°40'37 1.6
2015-Mar-04 01:25N 46°40' W 002°10'7 8.0
2015-Mar-04 00:33N 46°34' W 002°05'8 7.9
2015-Mar-03 23:34N 46°28' W 001°58'8 8.1
2015-Mar-03 22:34N 46°21' W 001°51'8 8.5
2015-Mar-03 21:33N 46°14' W 001°44'9 9.0
2015-Mar-03 20:34N 46°07' W 001°37'3 2.1
2015-Mar-03 19:13N 46°05' W 001°35'0 0.0
2015-Mar-03 18:21N 46°05' W 001°35'0 0.1
2015-Mar-03 17:31N 46°05' W 001°35'10 0.5
2015-Mar-02 22:16N 46°14' W 001°42'6 7.7
2015-Mar-02 21:33N 46°18' W 001°47'9 9.0
2015-Mar-02 20:33N 46°25' W 001°54'1010.3
2015-Mar-02 19:33N 46°33' W 002°03'1010.5
2015-Mar-02 18:33N 46°42' W 002°12'37 1.1
2015-Mar-01 09:18N 47°18' W 002°07'0 0.0
2015-Feb-28 16:24N 47°18' W 002°07'0 0.0
2015-Feb-28 15:10N 47°18' W 002°07'  
Track history (hours):
 
Tides and Currents Weather Stations Pressure Air Temp Water Temp Dewpoint Dewpoint Depression Visibility Wind Speed Wind Dir Waves Ship Positions

Michel Dsr

Last reported at 2015-Mar-06 03:33 UTC. Time now 2015-Mar-06 03:57 UTC.
Position N 46°22' W 001°46'.

Length 80 m; draft 5 m.

Type: Dredging. MMSI: 228344700.

Date/timePositionNaut miles runAvg speedWind from/ knotsBaromVisibWave heightAir tempDewpointWater temp
2015-Mar-06 03:33N 46°22' W 001°46'9 9.3
2015-Mar-06 02:33N 46°29' W 001°55'1111.0
2015-Mar-06 01:33N 46°37' W 002°06'1110.7
2015-Mar-06 00:33N 46°45' W 002°16'1111.0
2015-Mar-05 23:33N 46°53' W 002°27'1111.3
2015-Mar-05 22:33N 47°02' W 002°38'1211.8
2015-Mar-05 21:32N 47°10' W 002°50'1212.0
2015-Mar-05 20:33N 47°19' W 003°01'1111.4
2015-Mar-05 19:34N 47°28' W 003°12'1212.0
2015-Mar-05 18:33N 47°38' W 003°22'7 7.2
2015-Mar-05 17:34N 47°45' W 003°19'0 0.0
2015-Mar-05 16:33N 47°45' W 003°19'0 0.0
2015-Mar-05 15:33N 47°45' W 003°19'0 0.2
2015-Mar-05 14:33N 47°45' W 003°19'1 1.3
2015-Mar-05 13:34N 47°44' W 003°21'0 0.0
2015-Mar-05 12:34N 47°44' W 003°21'0 0.0
2015-Mar-05 11:34N 47°44' W 003°21'0 0.0
2015-Mar-05 10:33N 47°44' W 003°21'0 0.0
2015-Mar-05 09:34N 47°44' W 003°21'0 0.0
2015-Mar-05 08:34N 47°44' W 003°21'0 0.0
2015-Mar-05 07:34N 47°44' W 003°21'0 0.0
2015-Mar-05 06:34N 47°44' W 003°21'4 4.2
2015-Mar-05 05:34N 47°41' W 003°25'10 9.9
2015-Mar-05 04:34N 47°32' W 003°17'8 8.2
2015-Mar-05 03:34N 47°26' W 003°09'8 8.2
2015-Mar-05 02:34N 47°20' W 003°01'8 8.3
2015-Mar-05 01:33N 47°15' W 002°51'8 8.2
2015-Mar-05 00:33N 47°11' W 002°40'37 1.6
2015-Mar-04 01:25N 46°40' W 002°10'7 8.0
2015-Mar-04 00:33N 46°34' W 002°05'8 7.9
2015-Mar-03 23:34N 46°28' W 001°58'8 8.1
2015-Mar-03 22:34N 46°21' W 001°51'8 8.5
2015-Mar-03 21:33N 46°14' W 001°44'9 9.0
2015-Mar-03 20:34N 46°07' W 001°37'3 2.1
2015-Mar-03 19:13N 46°05' W 001°35'0 0.0
2015-Mar-03 18:21N 46°05' W 001°35'0 0.1
2015-Mar-03 17:31N 46°05' W 001°35'10 0.5
2015-Mar-02 22:16N 46°14' W 001°42'6 7.7
2015-Mar-02 21:33N 46°18' W 001°47'9 9.0
2015-Mar-02 20:33N 46°25' W 001°54'1010.3
2015-Mar-02 19:33N 46°33' W 002°03'1010.5
2015-Mar-02 18:33N 46°42' W 002°12'37 1.1
2015-Mar-01 09:18N 47°18' W 002°07'0 0.0
2015-Feb-28 16:24N 47°18' W 002°07'0 0.0
2015-Feb-28 15:10N 47°18' W 002°07'  

Dump ship's entire track history